sensor_id;sensor_type;location;lat;lon;timestamp;temperature;humidity
51655;DHT22;37732;53.106;7.030;2024-01-15T00:01:34;2.30;99.90
51655;DHT22;37732;53.106;7.030;2024-01-15T00:04:00;2.40;99.90
51655;DHT22;37732;53.106;7.030;2024-01-15T00:06:26;3.00;99.90
51655;DHT22;37732;53.106;7.030;2024-01-15T00:08:53;3.10;99.90
51655;DHT22;37732;53.106;7.030;2024-01-15T00:11:19;2.30;99.90
51655;DHT22;37732;53.106;7.030;2024-01-15T00:13:45;2.10;99.90
51655;DHT22;37732;53.106;7.030;2024-01-15T00:16:11;1.60;99.90
51655;DHT22;37732;53.106;7.030;2024-01-15T00:18:37;1.60;99.90
51655;DHT22;37732;53.106;7.030;2024-01-15T00:21:03;1.60;99.90
51655;DHT22;37732;53.106;7.030;2024-01-15T00:23:29;1.80;99.90
51655;DHT22;37732;53.106;7.030;2024-01-15T00:25:54;2.50;99.90
51655;DHT22;37732;53.106;7.030;2024-01-15T00:28:20;1.50;99.90
51655;DHT22;37732;53.106;7.030;2024-01-15T00:30:46;1.70;99.90
51655;DHT22;37732;53.106;7.030;2024-01-15T00:33:11;1.70;99.90
51655;DHT22;37732;53.106;7.030;2024-01-15T00:35:40;1.40;99.90
51655;DHT22;37732;53.106;7.030;2024-01-15T00:38:06;2.10;99.90
51655;DHT22;37732;53.106;7.030;2024-01-15T00:40:33;1.30;99.90
51655;DHT22;37732;53.106;7.030;2024-01-15T00:42:58;2.00;99.90
51655;DHT22;37732;53.106;7.030;2024-01-15T00:45:24;1.80;99.90
51655;DHT22;37732;53.106;7.030;2024-01-15T00:47:50;2.20;99.90
51655;DHT22;37732;53.106;7.030;2024-01-15T00:50:15;2.10;99.90
51655;DHT22;37732;53.106;7.030;2024-01-15T00:52:41;1.90;99.90
51655;DHT22;37732;53.106;7.030;2024-01-15T00:55:07;1.80;99.90
51655;DHT22;37732;53.106;7.030;2024-01-15T00:57:33;1.20;99.90
51655;DHT22;37732;53.106;7.030;2024-01-15T00:59:58;1.90;99.90
51655;DHT22;37732;53.106;7.030;2024-01-15T01:02:24;3.20;99.90
51655;DHT22;37732;53.106;7.030;2024-01-15T01:04:49;1.30;99.90
51655;DHT22;37732;53.106;7.030;2024-01-15T01:07:15;2.30;99.90
51655;DHT22;37732;53.106;7.030;2024-01-15T01:09:41;2.10;99.90
51655;DHT22;37732;53.106;7.030;2024-01-15T01:12:06;2.30;99.90
51655;DHT22;37732;53.106;7.030;2024-01-15T01:14:32;2.50;99.90
51655;DHT22;37732;53.106;7.030;2024-01-15T01:16:58;2.10;99.90
51655;DHT22;37732;53.106;7.030;2024-01-15T01:19:23;2.70;99.90
51655;DHT22;37732;53.106;7.030;2024-01-15T01:21:50;1.80;99.90
51655;DHT22;37732;53.106;7.030;2024-01-15T01:24:16;1.60;99.90
51655;DHT22;37732;53.106;7.030;2024-01-15T01:26:42;1.80;99.90
51655;DHT22;37732;53.106;7.030;2024-01-15T01:29:08;1.80;99.90
51655;DHT22;37732;53.106;7.030;2024-01-15T01:31:33;1.70;99.90
51655;DHT22;37732;53.106;7.030;2024-01-15T01:33:59;2.00;99.90
51655;DHT22;37732;53.106;7.030;2024-01-15T01:36:25;2.10;99.90
51655;DHT22;37732;53.106;7.030;2024-01-15T01:38:50;2.10;99.90
51655;DHT22;37732;53.106;7.030;2024-01-15T01:41:16;2.10;99.90
51655;DHT22;37732;53.106;7.030;2024-01-15T01:43:42;2.70;99.90
51655;DHT22;37732;53.106;7.030;2024-01-15T01:46:08;1.90;99.90
51655;DHT22;37732;53.106;7.030;2024-01-15T01:48:34;2.30;99.90
51655;DHT22;37732;53.106;7.030;2024-01-15T01:51:02;1.40;99.90
51655;DHT22;37732;53.106;7.030;2024-01-15T01:53:29;1.70;99.90
51655;DHT22;37732;53.106;7.030;2024-01-15T01:55:57;1.90;99.90
51655;DHT22;37732;53.106;7.030;2024-01-15T01:58:23;2.90;99.90
51655;DHT22;37732;53.106;7.030;2024-01-15T02:03:29;1.70;99.90
51655;DHT22;37732;53.106;7.030;2024-01-15T02:05:56;1.70;99.90
51655;DHT22;37732;53.106;7.030;2024-01-15T02:08:22;2.20;99.90
51655;DHT22;37732;53.106;7.030;2024-01-15T02:10:47;1.90;99.90
51655;DHT22;37732;53.106;7.030;2024-01-15T02:13:13;1.50;99.90
51655;DHT22;37732;53.106;7.030;2024-01-15T02:15:40;1.70;99.90
51655;DHT22;37732;53.106;7.030;2024-01-15T02:18:06;2.00;99.90
51655;DHT22;37732;53.106;7.030;2024-01-15T02:20:35;2.00;99.90
51655;DHT22;37732;53.106;7.030;2024-01-15T02:23:10;2.20;99.90
51655;DHT22;37732;53.106;7.030;2024-01-15T02:25:46;1.80;99.90
51655;DHT22;37732;53.106;7.030;2024-01-15T02:28:17;2.00;99.90
51655;DHT22;37732;53.106;7.030;2024-01-15T02:30:43;2.50;99.90
51655;DHT22;37732;53.106;7.030;2024-01-15T02:33:09;2.20;99.90
51655;DHT22;37732;53.106;7.030;2024-01-15T02:35:36;1.90;99.90
51655;DHT22;37732;53.106;7.030;2024-01-15T02:38:02;2.50;99.90
51655;DHT22;37732;53.106;7.030;2024-01-15T02:40:28;1.80;99.90
51655;DHT22;37732;53.106;7.030;2024-01-15T02:42:54;2.40;99.90
51655;DHT22;37732;53.106;7.030;2024-01-15T02:45:20;2.30;99.90
51655;DHT22;37732;53.106;7.030;2024-01-15T02:47:46;2.50;99.90
51655;DHT22;37732;53.106;7.030;2024-01-15T02:50:12;2.50;99.90
51655;DHT22;37732;53.106;7.030;2024-01-15T02:52:37;2.00;99.90
51655;DHT22;37732;53.106;7.030;2024-01-15T02:55:03;2.30;99.90
51655;DHT22;37732;53.106;7.030;2024-01-15T02:57:29;2.00;99.90
51655;DHT22;37732;53.106;7.030;2024-01-15T02:59:55;2.30;99.90
51655;DHT22;37732;53.106;7.030;2024-01-15T03:02:20;2.30;99.90
51655;DHT22;37732;53.106;7.030;2024-01-15T03:04:46;1.80;99.90
51655;DHT22;37732;53.106;7.030;2024-01-15T03:07:12;2.00;99.90
51655;DHT22;37732;53.106;7.030;2024-01-15T03:09:38;2.40;99.90
51655;DHT22;37732;53.106;7.030;2024-01-15T03:12:04;2.80;99.90
51655;DHT22;37732;53.106;7.030;2024-01-15T03:14:30;1.90;99.90
51655;DHT22;37732;53.106;7.030;2024-01-15T03:16:55;2.10;99.90
51655;DHT22;37732;53.106;7.030;2024-01-15T03:19:21;2.70;99.90
51655;DHT22;37732;53.106;7.030;2024-01-15T03:21:47;2.50;99.90
51655;DHT22;37732;53.106;7.030;2024-01-15T03:24:12;2.10;99.90
51655;DHT22;37732;53.106;7.030;2024-01-15T03:26:38;2.20;99.90
51655;DHT22;37732;53.106;7.030;2024-01-15T03:29:04;2.50;99.90
51655;DHT22;37732;53.106;7.030;2024-01-15T03:31:30;2.80;99.90
51655;DHT22;37732;53.106;7.030;2024-01-15T03:33:56;2.40;99.90
51655;DHT22;37732;53.106;7.030;2024-01-15T03:36:21;2.60;99.90
51655;DHT22;37732;53.106;7.030;2024-01-15T03:38:47;2.00;99.90
51655;DHT22;37732;53.106;7.030;2024-01-15T03:41:13;2.20;99.90
51655;DHT22;37732;53.106;7.030;2024-01-15T03:43:39;2.60;99.90
51655;DHT22;37732;53.106;7.030;2024-01-15T03:46:05;2.10;99.90
51655;DHT22;37732;53.106;7.030;2024-01-15T03:48:31;2.60;99.90
51655;DHT22;37732;53.106;7.030;2024-01-15T03:50:57;2.50;99.90
51655;DHT22;37732;53.106;7.030;2024-01-15T03:53:22;2.70;99.90
51655;DHT22;37732;53.106;7.030;2024-01-15T03:55:49;2.70;99.90
51655;DHT22;37732;53.106;7.030;2024-01-15T03:58:15;3.10;99.90
51655;DHT22;37732;53.106;7.030;2024-01-15T04:00:41;2.50;99.90
51655;DHT22;37732;53.106;7.030;2024-01-15T04:03:07;2.60;99.90
51655;DHT22;37732;53.106;7.030;2024-01-15T04:05:32;2.00;99.90
51655;DHT22;37732;53.106;7.030;2024-01-15T04:07:58;2.50;99.90
51655;DHT22;37732;53.106;7.030;2024-01-15T04:10:24;2.80;99.90
51655;DHT22;37732;53.106;7.030;2024-01-15T04:12:49;2.60;99.90
51655;DHT22;37732;53.106;7.030;2024-01-15T04:15:15;2.80;99.90
51655;DHT22;37732;53.106;7.030;2024-01-15T04:17:41;2.40;99.90
51655;DHT22;37732;53.106;7.030;2024-01-15T04:20:07;2.50;99.90
51655;DHT22;37732;53.106;7.030;2024-01-15T04:22:34;2.00;99.90
51655;DHT22;37732;53.106;7.030;2024-01-15T04:25:01;2.00;99.90
51655;DHT22;37732;53.106;7.030;2024-01-15T04:27:27;2.20;99.90
51655;DHT22;37732;53.106;7.030;2024-01-15T04:29:53;1.90;99.90
51655;DHT22;37732;53.106;7.030;2024-01-15T04:32:19;1.80;99.90
51655;DHT22;37732;53.106;7.030;2024-01-15T04:34:44;1.70;99.90
51655;DHT22;37732;53.106;7.030;2024-01-15T04:37:10;2.40;99.90
51655;DHT22;37732;53.106;7.030;2024-01-15T04:39:36;2.40;99.90
51655;DHT22;37732;53.106;7.030;2024-01-15T04:42:02;2.10;99.90
51655;DHT22;37732;53.106;7.030;2024-01-15T04:44:28;1.70;99.90
51655;DHT22;37732;53.106;7.030;2024-01-15T04:46:54;2.00;99.90
51655;DHT22;37732;53.106;7.030;2024-01-15T04:49:20;1.90;99.90
51655;DHT22;37732;53.106;7.030;2024-01-15T04:51:46;1.80;99.90
51655;DHT22;37732;53.106;7.030;2024-01-15T04:54:11;1.80;99.90
51655;DHT22;37732;53.106;7.030;2024-01-15T04:56:37;2.70;99.90
51655;DHT22;37732;53.106;7.030;2024-01-15T04:59:03;2.10;99.90
51655;DHT22;37732;53.106;7.030;2024-01-15T05:01:32;1.80;99.90
51655;DHT22;37732;53.106;7.030;2024-01-15T05:03:58;2.30;99.90
51655;DHT22;37732;53.106;7.030;2024-01-15T05:06:24;2.30;99.90
51655;DHT22;37732;53.106;7.030;2024-01-15T05:08:49;2.10;99.90
51655;DHT22;37732;53.106;7.030;2024-01-15T05:11:15;2.10;99.90
51655;DHT22;37732;53.106;7.030;2024-01-15T05:13:41;2.70;99.90
51655;DHT22;37732;53.106;7.030;2024-01-15T05:16:07;2.60;99.90
51655;DHT22;37732;53.106;7.030;2024-01-15T05:18:33;2.90;99.90
51655;DHT22;37732;53.106;7.030;2024-01-15T05:20:59;2.90;99.90
51655;DHT22;37732;53.106;7.030;2024-01-15T05:23:24;1.90;99.90
51655;DHT22;37732;53.106;7.030;2024-01-15T05:25:50;2.40;99.90
51655;DHT22;37732;53.106;7.030;2024-01-15T05:28:16;2.40;99.90
51655;DHT22;37732;53.106;7.030;2024-01-15T05:30:42;2.20;99.90
51655;DHT22;37732;53.106;7.030;2024-01-15T05:33:08;2.40;99.90
51655;DHT22;37732;53.106;7.030;2024-01-15T05:35:34;2.70;99.90
51655;DHT22;37732;53.106;7.030;2024-01-15T05:37:59;2.20;99.90
51655;DHT22;37732;53.106;7.030;2024-01-15T05:40:25;2.80;99.90
51655;DHT22;37732;53.106;7.030;2024-01-15T05:42:51;2.60;99.90
51655;DHT22;37732;53.106;7.030;2024-01-15T05:45:16;2.70;99.90
51655;DHT22;37732;53.106;7.030;2024-01-15T05:47:42;2.60;99.90
51655;DHT22;37732;53.106;7.030;2024-01-15T05:50:09;2.40;99.90
51655;DHT22;37732;53.106;7.030;2024-01-15T05:52:35;2.00;99.90
51655;DHT22;37732;53.106;7.030;2024-01-15T05:55:01;2.20;99.90
51655;DHT22;37732;53.106;7.030;2024-01-15T05:57:27;1.90;99.90
51655;DHT22;37732;53.106;7.030;2024-01-15T05:59:53;2.00;99.90
51655;DHT22;37732;53.106;7.030;2024-01-15T06:02:19;2.20;99.90
51655;DHT22;37732;53.106;7.030;2024-01-15T06:04:45;2.10;99.90
51655;DHT22;37732;53.106;7.030;2024-01-15T06:07:10;2.00;99.90
51655;DHT22;37732;53.106;7.030;2024-01-15T06:09:36;2.10;99.90
51655;DHT22;37732;53.106;7.030;2024-01-15T06:12:02;2.40;99.90
51655;DHT22;37732;53.106;7.030;2024-01-15T06:14:28;1.60;99.90
51655;DHT22;37732;53.106;7.030;2024-01-15T06:16:53;1.90;99.90
51655;DHT22;37732;53.106;7.030;2024-01-15T06:19:19;1.60;99.90
51655;DHT22;37732;53.106;7.030;2024-01-15T06:21:45;2.10;99.90
51655;DHT22;37732;53.106;7.030;2024-01-15T06:24:10;2.30;99.90
51655;DHT22;37732;53.106;7.030;2024-01-15T06:26:36;2.10;99.90
51655;DHT22;37732;53.106;7.030;2024-01-15T06:29:02;1.80;99.90
51655;DHT22;37732;53.106;7.030;2024-01-15T06:31:28;1.60;99.90
51655;DHT22;37732;53.106;7.030;2024-01-15T06:33:55;2.20;99.90
51655;DHT22;37732;53.106;7.030;2024-01-15T06:36:21;1.80;99.90
51655;DHT22;37732;53.106;7.030;2024-01-15T06:38:47;1.80;99.90
51655;DHT22;37732;53.106;7.030;2024-01-15T06:41:12;1.70;99.90
51655;DHT22;37732;53.106;7.030;2024-01-15T06:43:38;1.60;99.90
51655;DHT22;37732;53.106;7.030;2024-01-15T06:46:04;2.10;99.90
51655;DHT22;37732;53.106;7.030;2024-01-15T06:48:30;1.40;99.90
51655;DHT22;37732;53.106;7.030;2024-01-15T06:50:55;1.30;99.90
51655;DHT22;37732;53.106;7.030;2024-01-15T06:53:21;1.70;99.90
51655;DHT22;37732;53.106;7.030;2024-01-15T06:55:47;1.80;99.90
51655;DHT22;37732;53.106;7.030;2024-01-15T06:58:14;1.70;99.90
51655;DHT22;37732;53.106;7.030;2024-01-15T07:00:40;1.60;99.90
51655;DHT22;37732;53.106;7.030;2024-01-15T07:03:06;1.70;99.90
51655;DHT22;37732;53.106;7.030;2024-01-15T07:05:31;1.70;99.90
51655;DHT22;37732;53.106;7.030;2024-01-15T07:07:57;1.50;99.90
51655;DHT22;37732;53.106;7.030;2024-01-15T07:10:23;1.70;99.90
51655;DHT22;37732;53.106;7.030;2024-01-15T07:12:49;1.90;99.90
51655;DHT22;37732;53.106;7.030;2024-01-15T07:15:15;2.20;99.90
51655;DHT22;37732;53.106;7.030;2024-01-15T07:17:41;2.10;99.90
51655;DHT22;37732;53.106;7.030;2024-01-15T07:20:08;2.20;99.90
51655;DHT22;37732;53.106;7.030;2024-01-15T07:22:35;1.40;99.90
51655;DHT22;37732;53.106;7.030;2024-01-15T07:25:01;1.80;99.90
51655;DHT22;37732;53.106;7.030;2024-01-15T07:27:26;1.70;99.90
51655;DHT22;37732;53.106;7.030;2024-01-15T07:29:52;1.60;99.90
51655;DHT22;37732;53.106;7.030;2024-01-15T07:32:18;1.50;99.90
51655;DHT22;37732;53.106;7.030;2024-01-15T07:34:43;1.80;99.90
51655;DHT22;37732;53.106;7.030;2024-01-15T07:37:09;1.50;99.90
51655;DHT22;37732;53.106;7.030;2024-01-15T07:39:35;1.10;99.90
51655;DHT22;37732;53.106;7.030;2024-01-15T07:42:01;1.40;99.90
51655;DHT22;37732;53.106;7.030;2024-01-15T07:44:27;2.30;99.90
51655;DHT22;37732;53.106;7.030;2024-01-15T07:46:53;1.60;99.90
51655;DHT22;37732;53.106;7.030;2024-01-15T07:49:18;1.60;99.90
51655;DHT22;37732;53.106;7.030;2024-01-15T07:51:44;1.60;99.90
51655;DHT22;37732;53.106;7.030;2024-01-15T07:54:10;1.60;99.90
51655;DHT22;37732;53.106;7.030;2024-01-15T07:57:01;1.40;99.90
51655;DHT22;37732;53.106;7.030;2024-01-15T07:59:30;1.60;99.90
51655;DHT22;37732;53.106;7.030;2024-01-15T08:01:57;1.70;99.90
51655;DHT22;37732;53.106;7.030;2024-01-15T08:04:23;2.20;99.90
51655;DHT22;37732;53.106;7.030;2024-01-15T08:06:49;1.40;99.90
51655;DHT22;37732;53.106;7.030;2024-01-15T08:09:15;1.30;99.90
51655;DHT22;37732;53.106;7.030;2024-01-15T08:11:40;1.80;99.90
51655;DHT22;37732;53.106;7.030;2024-01-15T08:14:10;1.30;99.90
51655;DHT22;37732;53.106;7.030;2024-01-15T08:16:36;1.70;99.90
51655;DHT22;37732;53.106;7.030;2024-01-15T08:19:02;2.10;99.90
51655;DHT22;37732;53.106;7.030;2024-01-15T08:21:28;1.50;99.90
51655;DHT22;37732;53.106;7.030;2024-01-15T08:23:57;1.90;99.90
51655;DHT22;37732;53.106;7.030;2024-01-15T08:26:22;2.00;99.90
51655;DHT22;37732;53.106;7.030;2024-01-15T08:28:48;1.70;99.90
51655;DHT22;37732;53.106;7.030;2024-01-15T08:31:14;1.70;99.90
51655;DHT22;37732;53.106;7.030;2024-01-15T08:33:39;1.80;99.90
51655;DHT22;37732;53.106;7.030;2024-01-15T08:36:05;1.70;99.90
51655;DHT22;37732;53.106;7.030;2024-01-15T08:38:31;1.40;99.90
51655;DHT22;37732;53.106;7.030;2024-01-15T08:40:57;1.50;99.90
51655;DHT22;37732;53.106;7.030;2024-01-15T08:43:24;1.70;99.90
51655;DHT22;37732;53.106;7.030;2024-01-15T08:45:50;1.50;99.90
51655;DHT22;37732;53.106;7.030;2024-01-15T08:48:16;1.70;99.90
51655;DHT22;37732;53.106;7.030;2024-01-15T08:50:42;2.00;99.90
51655;DHT22;37732;53.106;7.030;2024-01-15T08:53:12;2.00;99.90
51655;DHT22;37732;53.106;7.030;2024-01-15T08:55:37;1.90;99.90
51655;DHT22;37732;53.106;7.030;2024-01-15T08:58:03;1.90;99.90
51655;DHT22;37732;53.106;7.030;2024-01-15T09:00:29;1.70;99.90
51655;DHT22;37732;53.106;7.030;2024-01-15T09:02:56;2.00;99.90
51655;DHT22;37732;53.106;7.030;2024-01-15T09:05:22;1.80;99.90
51655;DHT22;37732;53.106;7.030;2024-01-15T09:07:47;1.80;99.90
51655;DHT22;37732;53.106;7.030;2024-01-15T09:10:14;2.50;99.90
51655;DHT22;37732;53.106;7.030;2024-01-15T09:12:40;1.80;99.90
51655;DHT22;37732;53.106;7.030;2024-01-15T09:15:06;2.40;99.90
51655;DHT22;37732;53.106;7.030;2024-01-15T09:17:32;1.70;99.90
51655;DHT22;37732;53.106;7.030;2024-01-15T09:19:58;2.30;99.90
51655;DHT22;37732;53.106;7.030;2024-01-15T09:22:23;3.40;99.90
51655;DHT22;37732;53.106;7.030;2024-01-15T09:24:49;2.10;99.90
51655;DHT22;37732;53.106;7.030;2024-01-15T09:27:15;1.90;99.90
51655;DHT22;37732;53.106;7.030;2024-01-15T09:29:41;1.80;99.90
51655;DHT22;37732;53.106;7.030;2024-01-15T09:32:08;2.40;99.90
51655;DHT22;37732;53.106;7.030;2024-01-15T09:34:34;1.80;99.90
51655;DHT22;37732;53.106;7.030;2024-01-15T09:37:00;1.90;99.90
51655;DHT22;37732;53.106;7.030;2024-01-15T09:39:27;2.00;99.90
51655;DHT22;37732;53.106;7.030;2024-01-15T09:41:54;1.70;99.90
51655;DHT22;37732;53.106;7.030;2024-01-15T09:44:19;1.60;99.90
51655;DHT22;37732;53.106;7.030;2024-01-15T09:46:47;2.50;99.90
51655;DHT22;37732;53.106;7.030;2024-01-15T09:49:16;2.40;99.90
51655;DHT22;37732;53.106;7.030;2024-01-15T09:51:42;1.60;99.90
51655;DHT22;37732;53.106;7.030;2024-01-15T09:54:08;2.40;99.90
51655;DHT22;37732;53.106;7.030;2024-01-15T09:56:34;2.10;99.90
51655;DHT22;37732;53.106;7.030;2024-01-15T09:59:01;2.40;99.90
51655;DHT22;37732;53.106;7.030;2024-01-15T10:01:27;2.10;99.90
51655;DHT22;37732;53.106;7.030;2024-01-15T10:03:54;1.90;99.90
51655;DHT22;37732;53.106;7.030;2024-01-15T10:06:22;1.70;99.90
51655;DHT22;37732;53.106;7.030;2024-01-15T10:08:49;2.10;99.90
51655;DHT22;37732;53.106;7.030;2024-01-15T10:11:15;2.40;99.90
51655;DHT22;37732;53.106;7.030;2024-01-15T10:13:43;2.10;99.90
51655;DHT22;37732;53.106;7.030;2024-01-15T10:16:10;3.00;99.90
51655;DHT22;37732;53.106;7.030;2024-01-15T10:18:36;2.80;99.90
51655;DHT22;37732;53.106;7.030;2024-01-15T10:21:06;2.40;99.90
51655;DHT22;37732;53.106;7.030;2024-01-15T10:23:34;2.20;99.90
51655;DHT22;37732;53.106;7.030;2024-01-15T10:26:02;2.70;99.90
51655;DHT22;37732;53.106;7.030;2024-01-15T10:28:28;2.40;99.90
51655;DHT22;37732;53.106;7.030;2024-01-15T10:30:56;2.80;99.90
51655;DHT22;37732;53.106;7.030;2024-01-15T10:33:23;2.60;99.90
51655;DHT22;37732;53.106;7.030;2024-01-15T10:35:54;2.80;99.90
51655;DHT22;37732;53.106;7.030;2024-01-15T10:38:21;2.80;99.90
51655;DHT22;37732;53.106;7.030;2024-01-15T10:40:56;2.50;99.90
51655;DHT22;37732;53.106;7.030;2024-01-15T10:43:22;2.90;99.90
51655;DHT22;37732;53.106;7.030;2024-01-15T10:45:50;2.50;99.90
51655;DHT22;37732;53.106;7.030;2024-01-15T10:48:19;2.70;99.90
51655;DHT22;37732;53.106;7.030;2024-01-15T10:50:46;2.40;99.90
51655;DHT22;37732;53.106;7.030;2024-01-15T10:53:15;2.20;99.90
51655;DHT22;37732;53.106;7.030;2024-01-15T10:55:42;2.80;99.90
51655;DHT22;37732;53.106;7.030;2024-01-15T10:58:09;1.90;99.90
51655;DHT22;37732;53.106;7.030;2024-01-15T11:00:38;2.40;99.90
51655;DHT22;37732;53.106;7.030;2024-01-15T11:03:05;2.10;99.90
51655;DHT22;37732;53.106;7.030;2024-01-15T11:05:57;2.70;99.90
51655;DHT22;37732;53.106;7.030;2024-01-15T11:08:24;2.60;99.90
51655;DHT22;37732;53.106;7.030;2024-01-15T11:10:51;2.00;99.90
51655;DHT22;37732;53.106;7.030;2024-01-15T11:16:03;1.90;99.90
51655;DHT22;37732;53.106;7.030;2024-01-15T11:18:40;2.20;99.90
51655;DHT22;37732;53.106;7.030;2024-01-15T11:23:44;2.40;99.90
51655;DHT22;37732;53.106;7.030;2024-01-15T11:26:33;2.50;99.90
51655;DHT22;37732;53.106;7.030;2024-01-15T11:29:02;2.00;99.90
51655;DHT22;37732;53.106;7.030;2024-01-15T11:31:29;2.20;99.90
51655;DHT22;37732;53.106;7.030;2024-01-15T11:34:15;2.30;99.90
51655;DHT22;37732;53.106;7.030;2024-01-15T11:41:58;2.20;99.90
51655;DHT22;37732;53.106;7.030;2024-01-15T11:44:25;2.00;99.90
51655;DHT22;37732;53.106;7.030;2024-01-15T11:47:03;2.30;99.90
51655;DHT22;37732;53.106;7.030;2024-01-15T11:52:16;2.30;99.90
51655;DHT22;37732;53.106;7.030;2024-01-15T12:00:14;2.40;99.90
51655;DHT22;37732;53.106;7.030;2024-01-15T12:02:45;2.40;99.90
51655;DHT22;37732;53.106;7.030;2024-01-15T12:05:12;2.90;99.90
51655;DHT22;37732;53.106;7.030;2024-01-15T12:07:48;2.60;99.90
51655;DHT22;37732;53.106;7.030;2024-01-15T12:10:16;2.50;99.90
51655;DHT22;37732;53.106;7.030;2024-01-15T12:13:05;2.60;99.90
51655;DHT22;37732;53.106;7.030;2024-01-15T12:15:31;2.50;99.90
51655;DHT22;37732;53.106;7.030;2024-01-15T12:17:59;2.80;99.90
51655;DHT22;37732;53.106;7.030;2024-01-15T12:20:32;2.50;99.90
51655;DHT22;37732;53.106;7.030;2024-01-15T12:22:58;2.60;99.90
51655;DHT22;37732;53.106;7.030;2024-01-15T12:25:24;2.80;99.90
51655;DHT22;37732;53.106;7.030;2024-01-15T12:27:53;2.70;99.90
51655;DHT22;37732;53.106;7.030;2024-01-15T12:30:19;2.70;99.90
51655;DHT22;37732;53.106;7.030;2024-01-15T12:32:45;2.60;99.90
51655;DHT22;37732;53.106;7.030;2024-01-15T12:35:12;3.20;99.90
51655;DHT22;37732;53.106;7.030;2024-01-15T12:37:43;3.00;99.90
51655;DHT22;37732;53.106;7.030;2024-01-15T12:40:10;2.60;99.90
51655;DHT22;37732;53.106;7.030;2024-01-15T12:42:42;2.30;99.90
51655;DHT22;37732;53.106;7.030;2024-01-15T12:45:09;2.60;99.90
51655;DHT22;37732;53.106;7.030;2024-01-15T12:47:39;3.00;99.90
51655;DHT22;37732;53.106;7.030;2024-01-15T12:50:12;2.60;99.90
51655;DHT22;37732;53.106;7.030;2024-01-15T12:52:40;2.80;99.90
51655;DHT22;37732;53.106;7.030;2024-01-15T12:55:07;3.00;99.90
51655;DHT22;37732;53.106;7.030;2024-01-15T12:57:35;2.60;99.90
51655;DHT22;37732;53.106;7.030;2024-01-15T13:00:00;3.00;99.90
51655;DHT22;37732;53.106;7.030;2024-01-15T13:02:26;2.80;99.90
51655;DHT22;37732;53.106;7.030;2024-01-15T13:04:52;3.20;99.90
51655;DHT22;37732;53.106;7.030;2024-01-15T13:07:19;3.70;99.90
51655;DHT22;37732;53.106;7.030;2024-01-15T13:09:48;3.10;99.90
51655;DHT22;37732;53.106;7.030;2024-01-15T13:12:17;3.40;99.90
51655;DHT22;37732;53.106;7.030;2024-01-15T13:14:43;3.50;99.90
51655;DHT22;37732;53.106;7.030;2024-01-15T13:17:08;3.50;99.90
51655;DHT22;37732;53.106;7.030;2024-01-15T13:19:34;3.60;99.90
51655;DHT22;37732;53.106;7.030;2024-01-15T13:22:00;4.00;99.90
51655;DHT22;37732;53.106;7.030;2024-01-15T13:24:25;3.70;99.90
51655;DHT22;37732;53.106;7.030;2024-01-15T13:26:51;3.50;99.90
51655;DHT22;37732;53.106;7.030;2024-01-15T13:29:17;3.20;99.90
51655;DHT22;37732;53.106;7.030;2024-01-15T13:31:43;3.30;99.90
51655;DHT22;37732;53.106;7.030;2024-01-15T13:34:11;3.40;99.90
51655;DHT22;37732;53.106;7.030;2024-01-15T13:36:37;3.20;99.90
51655;DHT22;37732;53.106;7.030;2024-01-15T13:39:04;3.60;99.90
51655;DHT22;37732;53.106;7.030;2024-01-15T13:41:35;3.40;99.90
51655;DHT22;37732;53.106;7.030;2024-01-15T13:44:00;3.40;99.90
51655;DHT22;37732;53.106;7.030;2024-01-15T13:46:26;3.50;99.90
51655;DHT22;37732;53.106;7.030;2024-01-15T13:48:53;3.40;99.90
51655;DHT22;37732;53.106;7.030;2024-01-15T13:51:23;3.50;99.90
51655;DHT22;37732;53.106;7.030;2024-01-15T13:53:49;3.00;99.90
51655;DHT22;37732;53.106;7.030;2024-01-15T13:56:16;3.40;99.90
51655;DHT22;37732;53.106;7.030;2024-01-15T13:58:45;3.30;99.90
51655;DHT22;37732;53.106;7.030;2024-01-15T14:01:11;3.10;99.90
51655;DHT22;37732;53.106;7.030;2024-01-15T14:03:36;3.10;99.90
51655;DHT22;37732;53.106;7.030;2024-01-15T14:06:02;3.10;99.90
51655;DHT22;37732;53.106;7.030;2024-01-15T14:08:29;2.70;99.90
51655;DHT22;37732;53.106;7.030;2024-01-15T14:10:55;2.90;99.90
51655;DHT22;37732;53.106;7.030;2024-01-15T14:13:22;3.10;99.90
51655;DHT22;37732;53.106;7.030;2024-01-15T14:15:48;3.60;99.90
51655;DHT22;37732;53.106;7.030;2024-01-15T14:18:16;2.80;99.90
51655;DHT22;37732;53.106;7.030;2024-01-15T14:20:45;2.70;99.90
51655;DHT22;37732;53.106;7.030;2024-01-15T14:23:10;3.00;99.90
51655;DHT22;37732;53.106;7.030;2024-01-15T14:25:36;2.90;99.90
51655;DHT22;37732;53.106;7.030;2024-01-15T14:28:02;3.30;99.90
51655;DHT22;37732;53.106;7.030;2024-01-15T14:30:27;2.60;99.90
51655;DHT22;37732;53.106;7.030;2024-01-15T14:32:53;2.90;99.90
51655;DHT22;37732;53.106;7.030;2024-01-15T14:35:19;2.70;99.90
51655;DHT22;37732;53.106;7.030;2024-01-15T14:37:44;2.20;99.90
51655;DHT22;37732;53.106;7.030;2024-01-15T14:40:11;2.80;99.90
51655;DHT22;37732;53.106;7.030;2024-01-15T14:42:37;2.50;99.90
51655;DHT22;37732;53.106;7.030;2024-01-15T14:45:04;2.40;99.90
51655;DHT22;37732;53.106;7.030;2024-01-15T14:47:34;2.20;99.90
51655;DHT22;37732;53.106;7.030;2024-01-15T14:50:01;2.00;99.90
51655;DHT22;37732;53.106;7.030;2024-01-15T14:52:26;2.20;99.90
51655;DHT22;37732;53.106;7.030;2024-01-15T14:54:52;2.20;99.90
51655;DHT22;37732;53.106;7.030;2024-01-15T14:57:18;2.20;99.90
51655;DHT22;37732;53.106;7.030;2024-01-15T14:59:43;2.10;99.90
51655;DHT22;37732;53.106;7.030;2024-01-15T15:02:09;1.90;99.90
51655;DHT22;37732;53.106;7.030;2024-01-15T15:04:35;2.30;99.90
51655;DHT22;37732;53.106;7.030;2024-01-15T15:07:00;2.40;99.90
51655;DHT22;37732;53.106;7.030;2024-01-15T15:09:26;2.00;99.90
51655;DHT22;37732;53.106;7.030;2024-01-15T15:11:52;1.80;99.90
51655;DHT22;37732;53.106;7.030;2024-01-15T15:14:18;2.50;99.90
51655;DHT22;37732;53.106;7.030;2024-01-15T15:16:44;2.40;99.90
51655;DHT22;37732;53.106;7.030;2024-01-15T15:19:12;2.30;99.90
51655;DHT22;37732;53.106;7.030;2024-01-15T15:21:37;2.10;99.90
51655;DHT22;37732;53.106;7.030;2024-01-15T15:24:03;2.00;99.90
51655;DHT22;37732;53.106;7.030;2024-01-15T15:26:29;1.80;99.90
51655;DHT22;37732;53.106;7.030;2024-01-15T15:28:55;1.80;99.90
51655;DHT22;37732;53.106;7.030;2024-01-15T15:31:20;1.70;99.90
51655;DHT22;37732;53.106;7.030;2024-01-15T15:33:46;2.70;99.90
51655;DHT22;37732;53.106;7.030;2024-01-15T15:36:11;2.00;99.90
51655;DHT22;37732;53.106;7.030;2024-01-15T15:38:37;3.00;99.90
51655;DHT22;37732;53.106;7.030;2024-01-15T15:41:03;2.30;99.90
51655;DHT22;37732;53.106;7.030;2024-01-15T15:43:29;1.60;99.90
51655;DHT22;37732;53.106;7.030;2024-01-15T15:45:56;2.10;99.90
51655;DHT22;37732;53.106;7.030;2024-01-15T15:48:23;2.40;99.90
51655;DHT22;37732;53.106;7.030;2024-01-15T15:50:50;2.20;99.90
51655;DHT22;37732;53.106;7.030;2024-01-15T15:53:18;1.90;99.90
51655;DHT22;37732;53.106;7.030;2024-01-15T15:55:44;2.60;99.90
51655;DHT22;37732;53.106;7.030;2024-01-15T15:58:10;1.40;99.90
51655;DHT22;37732;53.106;7.030;2024-01-15T16:00:35;1.90;99.90
51655;DHT22;37732;53.106;7.030;2024-01-15T16:03:01;1.90;99.90